Time;durP1;ratioP1;P1;durP2;ratioP2;P2;SDS_P1;SDS_P2;PMS_P1;PMS_P2;Temp;Humidity;BMP_temperature;BMP_pressure;BME280_temperature;BME280_humidity;BME280_pressure;Samples;Min_cycle;Max_cycle;Signal;HPM_P1;HPM_P2
2023/12/17 00:01:07;;;;;;;13.07;7.60;;;;;;;-144.57;100.00;62443.72;4998994;28;20060;-62
2023/12/17 00:03:34;;;;;;;14.18;6.78;;;;;;;-144.57;100.00;62443.72;4983132;28;20044;-63
2023/12/17 00:05:59;;;;;;;10.65;6.38;;;;;;;-144.57;100.00;62443.72;5015341;28;20041;-63
2023/12/17 00:08:25;;;;;;;14.70;7.18;;;;;;;-144.57;100.00;62443.72;5015257;28;20546;-61
2023/12/17 00:10:52;;;;;;;12.27;6.80;;;;;;;-144.57;100.00;62443.72;5015518;28;20521;-63
2023/12/17 00:13:18;;;;;;;10.40;6.53;;;;;;;-144.57;100.00;62443.72;5033144;28;20056;-62
2023/12/17 00:15:44;;;;;;;12.13;6.72;;;;;;;-144.57;100.00;62443.72;5033066;28;20053;-63
2023/12/17 00:18:11;;;;;;;11.05;6.55;;;;;;;-144.57;100.00;62443.72;5015169;28;20041;-61
2023/12/17 00:20:37;;;;;;;13.02;7.68;;;;;;;-144.57;100.00;62443.72;5032894;28;20128;-63
2023/12/17 00:23:04;;;;;;;12.27;6.65;;;;;;;-144.57;100.00;62443.72;4998890;28;20120;-62
2023/12/17 00:25:31;;;;;;;13.38;6.82;;;;;;;-144.57;100.00;62443.72;5015141;28;20049;-62
2023/12/17 00:27:57;;;;;;;12.55;6.78;;;;;;;-144.57;100.00;62443.72;5014555;28;20041;-63
2023/12/17 00:30:22;;;;;;;13.77;7.55;;;;;;;-144.57;100.00;62443.72;5032454;28;20636;-62
2023/12/17 00:32:48;;;;;;;12.90;7.20;;;;;;;-144.57;100.00;62443.72;4998289;28;20041;-61
2023/12/17 00:35:14;;;;;;;13.00;7.47;;;;;;;-144.57;100.00;62443.72;5032678;28;20045;-62
2023/12/17 00:37:40;;;;;;;10.23;6.43;;;;;;;-144.57;100.00;62443.72;5032548;28;20068;-62
2023/12/17 00:40:07;;;;;;;15.13;7.78;;;;;;;-144.57;100.00;62443.72;4998583;28;20156;-62
2023/12/17 00:42:33;;;;;;;9.85;6.22;;;;;;;-144.57;100.00;62443.72;5014894;28;20124;-62
2023/12/17 00:44:59;;;;;;;10.65;6.65;;;;;;;-144.57;100.00;62443.72;5032210;28;20045;-64
2023/12/17 00:47:25;;;;;;;14.98;6.63;;;;;;;-144.57;100.00;62443.72;5032324;28;20083;-62
2023/12/17 00:49:52;;;;;;;10.88;6.47;;;;;;;-144.57;100.00;62443.72;5032241;28;20450;-63
2023/12/17 00:52:20;;;;;;;11.00;6.45;;;;;;;-144.57;100.00;62443.72;5014491;28;20041;-62
2023/12/17 00:54:46;;;;;;;13.10;7.65;;;;;;;-144.57;100.00;62443.72;5032210;28;20053;-60
2023/12/17 00:57:12;;;;;;;11.75;6.68;;;;;;;-144.57;100.00;62443.72;5032258;28;20039;-63
2023/12/17 00:59:38;;;;;;;10.55;6.43;;;;;;;-144.57;100.00;62443.72;5013845;28;20144;-62
2023/12/17 01:02:04;;;;;;;12.32;6.93;;;;;;;-144.57;100.00;62443.72;5031680;28;20473;-62
2023/12/17 01:04:30;;;;;;;13.20;6.57;;;;;;;-144.57;100.00;62443.72;5032177;28;20033;-62
2023/12/17 01:06:56;;;;;;;12.93;6.40;;;;;;;-144.57;100.00;62443.72;5031964;28;20034;-61
2023/12/17 01:09:22;;;;;;;11.93;6.95;;;;;;;-144.57;100.00;62443.72;5031930;28;20060;-61
2023/12/17 01:11:48;;;;;;;13.82;7.28;;;;;;;-144.57;100.00;62443.72;5014343;28;20069;-62
2023/12/17 01:14:14;;;;;;;12.00;7.13;;;;;;;-144.57;100.00;62443.72;5014254;28;20585;-62
2023/12/17 01:16:39;;;;;;;12.27;7.50;;;;;;;-144.57;100.00;62443.72;5031708;28;20450;-63
2023/12/17 01:19:05;;;;;;;10.55;6.40;;;;;;;-144.57;100.00;62443.72;5014199;28;20119;-63
2023/12/17 01:21:31;;;;;;;13.00;7.53;;;;;;;-144.57;100.00;62443.72;5013969;28;20585;-64
2023/12/17 01:23:58;;;;;;;13.50;6.65;;;;;;;-144.57;100.00;62443.72;5014082;28;20076;-62
2023/12/17 01:26:26;;;;;;;12.15;6.85;;;;;;;-144.57;100.00;62443.72;5031615;28;20260;-62
2023/12/17 01:28:55;;;;;;;11.48;6.25;;;;;;;-144.57;100.00;62443.72;5013937;28;20045;-62
2023/12/17 01:31:21;;;;;;;10.75;6.30;;;;;;;-144.57;100.00;62443.72;5031461;28;20085;-61
2023/12/17 01:33:47;;;;;;;10.05;6.35;;;;;;;-144.57;100.00;62443.72;5013825;28;20622;-63
2023/12/17 01:36:13;;;;;;;12.15;6.45;;;;;;;-144.57;100.00;62443.72;4981272;28;20064;-64
2023/12/17 01:38:39;;;;;;;12.07;6.53;;;;;;;-144.57;100.00;62443.72;5013764;28;20056;-61
2023/12/17 01:41:06;;;;;;;12.75;6.28;;;;;;;-144.57;100.00;62443.72;5031376;28;20042;-63
2023/12/17 01:43:33;;;;;;;10.10;6.47;;;;;;;-144.57;100.00;62443.72;5031643;28;20064;-61
2023/12/17 01:45:59;;;;;;;13.82;7.03;;;;;;;-144.57;100.00;62443.72;5031553;28;20041;-62
2023/12/17 01:48:25;;;;;;;11.93;6.55;;;;;;;-144.57;100.00;62443.72;5013815;28;20046;-61
2023/12/17 01:50:52;;;;;;;8.50;5.20;;;;;;;-144.57;100.00;62443.72;5031244;28;20080;-62
2023/12/17 01:53:18;;;;;;;9.50;5.43;;;;;;;-144.57;100.00;62443.72;5013495;28;20041;-62
2023/12/17 01:55:45;;;;;;;17.13;5.53;;;;;;;-144.57;100.00;62443.72;5031213;28;20064;-62
2023/12/17 01:58:11;;;;;;;9.63;5.18;;;;;;;-144.57;100.00;62443.72;4997398;28;20048;-61
2023/12/17 02:00:37;;;;;;;10.30;5.50;;;;;;;-144.57;100.00;62443.72;5013778;28;20180;-62
2023/12/17 02:03:04;;;;;;;11.45;5.57;;;;;;;-144.57;100.00;62443.72;5013415;28;20045;-62
2023/12/17 02:05:33;;;;;;;10.20;5.82;;;;;;;-144.57;100.00;62443.72;5031466;28;20053;-62
2023/12/17 02:08:03;;;;;;;9.88;5.10;;;;;;;-144.57;100.00;62443.72;5013377;28;20037;-63
2023/12/17 02:10:29;;;;;;;7.00;4.25;;;;;;;-144.57;100.00;62443.72;5031398;28;20047;-60
2023/12/17 02:12:58;;;;;;;9.30;4.75;;;;;;;-144.57;100.00;62443.72;5032958;28;20048;-62
2023/12/17 02:15:24;;;;;;;8.10;4.78;;;;;;;-144.57;100.00;62443.72;5017351;28;20098;-62
2023/12/17 02:17:50;;;;;;;6.32;3.60;;;;;;;-144.57;100.00;62443.72;5017384;28;20041;-62
2023/12/17 02:20:16;;;;;;;6.82;4.22;;;;;;;-144.57;100.00;62443.72;5034928;28;20091;-61
2023/12/17 02:22:42;;;;;;;6.10;3.85;;;;;;;-144.57;100.00;62443.72;5035011;28;20041;-61
2023/12/17 02:25:08;;;;;;;6.50;3.67;;;;;;;-144.57;100.00;62443.72;5017099;28;20049;-63
2023/12/17 02:27:34;;;;;;;6.57;3.92;;;;;;;-144.57;100.00;62443.72;5000745;28;20415;-62
2023/12/17 02:30:00;;;;;;;4.88;3.35;;;;;;;-144.57;100.00;62443.72;5001037;28;20052;-62
2023/12/17 02:32:27;;;;;;;7.00;3.83;;;;;;;-144.57;100.00;62443.72;5013476;28;20061;-61
2023/12/17 02:34:52;;;;;;;5.72;3.28;;;;;;;-144.57;100.00;62443.72;4997641;28;20041;-61
2023/12/17 02:37:19;;;;;;;5.75;2.90;;;;;;;-144.57;100.00;62443.72;5014951;28;20407;-62
2023/12/17 02:39:45;;;;;;;5.82;3.30;;;;;;;-144.57;100.00;62443.72;5013506;28;20111;-63
2023/12/17 02:42:10;;;;;;;5.10;3.13;;;;;;;-144.57;100.00;62443.72;5013585;28;20504;-61
2023/12/17 02:44:36;;;;;;;6.95;3.33;;;;;;;-144.57;100.00;62443.72;5013425;28;20424;-61
2023/12/17 02:47:02;;;;;;;5.50;2.80;;;;;;;-144.57;100.00;62443.72;5014907;28;20069;-62
2023/12/17 02:49:28;;;;;;;4.72;2.95;;;;;;;-144.57;100.00;62443.72;4996994;28;20037;-62
2023/12/17 02:51:55;;;;;;;4.55;2.90;;;;;;;-144.57;100.00;62443.72;5014748;28;20133;-63
2023/12/17 02:54:22;;;;;;;4.25;2.90;;;;;;;-144.57;100.00;62443.72;5013206;28;20041;-61
2023/12/17 02:56:48;;;;;;;4.35;2.90;;;;;;;-144.57;100.00;62443.72;5014539;28;20125;-61
2023/12/17 02:59:14;;;;;;;5.10;3.05;;;;;;;-144.57;100.00;62443.72;5014055;28;20132;-62
2023/12/17 03:01:41;;;;;;;5.07;3.08;;;;;;;-144.57;100.00;62443.72;5014599;28;20042;-62
2023/12/17 03:04:07;;;;;;;5.82;3.38;;;;;;;-144.57;100.00;62443.72;5014782;28;20411;-63
2023/12/17 03:06:33;;;;;;;6.35;3.30;;;;;;;-144.57;100.00;62443.72;5013404;28;20048;-63
2023/12/17 03:08:59;;;;;;;5.57;3.15;;;;;;;-144.57;100.00;62443.72;5013186;28;20053;-61
2023/12/17 03:11:24;;;;;;;6.15;3.40;;;;;;;-144.57;100.00;62443.72;4996728;28;20037;-63
2023/12/17 03:13:50;;;;;;;6.68;3.75;;;;;;;-144.57;100.00;62443.72;5013098;28;20061;-61
2023/12/17 03:16:16;;;;;;;6.25;3.67;;;;;;;-144.57;100.00;62443.72;5013291;28;20078;-61
2023/12/17 03:18:42;;;;;;;5.72;3.40;;;;;;;-144.57;100.00;62443.72;5014385;28;20144;-61
2023/12/17 03:21:08;;;;;;;7.35;4.00;;;;;;;-144.57;100.00;62443.72;5014167;28;20275;-62
2023/12/17 03:23:34;;;;;;;7.57;4.28;;;;;;;-144.57;100.00;62443.72;5013923;28;20450;-62
2023/12/17 03:26:02;;;;;;;8.45;4.93;;;;;;;-144.57;100.00;62443.72;4996342;28;20049;-63
2023/12/17 03:28:27;;;;;;;9.40;5.10;;;;;;;-144.57;100.00;62443.72;5012846;28;20053;-62
2023/12/17 03:30:53;;;;;;;7.60;4.75;;;;;;;-144.57;100.00;62443.72;5012525;28;20400;-61
2023/12/17 03:33:19;;;;;;;8.43;4.95;;;;;;;-144.57;100.00;62443.72;5014149;28;20042;-62
2023/12/17 03:35:44;;;;;;;9.18;5.28;;;;;;;-144.57;100.00;62443.72;5012512;28;20038;-64
2023/12/17 03:38:10;;;;;;;8.97;4.90;;;;;;;-144.57;100.00;62443.72;5012450;28;20049;-62
2023/12/17 03:40:36;;;;;;;8.77;5.28;;;;;;;-144.57;100.00;62443.72;5012819;28;20104;-62
2023/12/17 03:43:02;;;;;;;8.65;5.07;;;;;;;-144.57;100.00;62443.72;5013934;28;20048;-62
2023/12/17 03:45:27;;;;;;;7.82;4.60;;;;;;;-144.57;100.00;62443.72;4980257;28;20042;-65
2023/12/17 03:47:53;;;;;;;10.50;5.80;;;;;;;-144.57;100.00;62443.72;5013542;28;20065;-62
2023/12/17 03:50:19;;;;;;;8.82;5.47;;;;;;;-144.57;100.00;62443.72;5012682;28;20033;-62
2023/12/17 03:52:47;;;;;;;12.13;5.43;;;;;;;-144.57;100.00;62443.72;5012378;28;20042;-62
2023/12/17 03:55:13;;;;;;;13.43;6.05;;;;;;;-144.57;100.00;62443.72;5012524;28;20046;-62
2023/12/17 03:57:39;;;;;;;10.00;5.38;;;;;;;-144.57;100.00;62443.72;5012156;28;20050;-62
2023/12/17 04:00:05;;;;;;;10.25;5.63;;;;;;;-144.57;100.00;62443.72;4995774;28;20077;-63
2023/12/17 04:02:32;;;;;;;11.45;6.28;;;;;;;-144.57;100.00;62443.72;4995734;28;20042;-62
2023/12/17 04:04:58;;;;;;;11.43;5.70;;;;;;;-144.57;100.00;62443.72;5012022;28;20042;-62
2023/12/17 04:07:26;;;;;;;11.90;5.72;;;;;;;-144.57;100.00;62443.72;4995538;28;20069;-63
2023/12/17 04:09:52;;;;;;;12.75;5.75;;;;;;;-144.57;100.00;62443.72;5011971;28;20050;-61
2023/12/17 04:12:18;;;;;;;9.93;5.53;;;;;;;-144.57;100.00;62443.72;5013138;28;20431;-62
2023/12/17 04:14:44;;;;;;;11.32;6.03;;;;;;;-144.57;100.00;62443.72;5013311;28;20042;-62
2023/12/17 04:17:10;;;;;;;10.13;6.03;;;;;;;-144.57;100.00;62443.72;5013015;28;20574;-62
2023/12/17 04:19:36;;;;;;;11.13;5.80;;;;;;;-144.57;100.00;62443.72;4963291;28;20423;-62
2023/12/17 04:22:02;;;;;;;12.05;6.43;;;;;;;-144.57;100.00;62443.72;5011668;28;20042;-62
2023/12/17 04:24:28;;;;;;;11.52;5.97;;;;;;;-144.57;100.00;62443.72;5011965;28;20133;-61
2023/12/17 04:26:54;;;;;;;11.98;6.68;;;;;;;-144.57;100.00;62443.72;5011565;28;20033;-63
2023/12/17 04:29:19;;;;;;;15.20;7.07;;;;;;;-144.57;100.00;62443.72;5011329;28;20427;-62
2023/12/17 04:31:45;;;;;;;12.18;6.32;;;;;;;-144.57;100.00;62443.72;5011332;28;20176;-61
2023/12/17 04:34:11;;;;;;;13.82;7.03;;;;;;;-144.57;100.00;62443.72;5013204;28;20045;-62
2023/12/17 04:36:41;;;;;;;13.70;6.28;;;;;;;-144.57;100.00;62443.72;4994798;28;20072;-62
2023/12/17 04:39:07;;;;;;;12.77;6.90;;;;;;;-144.57;100.00;62443.72;5013109;28;20049;-62
2023/12/17 04:41:33;;;;;;;12.82;6.30;;;;;;;-144.57;100.00;62443.72;5012883;28;20088;-61
2023/12/17 04:43:59;;;;;;;14.02;6.38;;;;;;;-144.57;100.00;62443.72;5012901;28;20093;-63
2023/12/17 04:46:28;;;;;;;10.88;6.18;;;;;;;-144.57;100.00;62443.72;5012557;28;20069;-60
2023/12/17 04:48:55;;;;;;;11.30;5.95;;;;;;;-144.57;100.00;62443.72;5012640;28;20046;-62
2023/12/17 04:51:22;;;;;;;10.45;5.60;;;;;;;-144.57;100.00;62443.72;5012696;28;20042;-62
2023/12/17 04:53:48;;;;;;;13.25;6.43;;;;;;;-144.57;100.00;62443.72;5012724;28;20504;-63
2023/12/17 04:56:15;;;;;;;10.65;6.50;;;;;;;-144.57;100.00;62443.72;5012285;28;20046;-62
2023/12/17 04:58:40;;;;;;;13.20;6.78;;;;;;;-144.57;100.00;62443.72;5011191;28;20073;-61
2023/12/17 05:01:06;;;;;;;11.73;5.85;;;;;;;-144.57;100.00;62443.72;5012258;28;20069;-64
2023/12/17 05:03:32;;;;;;;10.10;6.35;;;;;;;-144.57;100.00;62443.72;5012553;28;20053;-61
2023/12/17 05:05:58;;;;;;;11.25;5.85;;;;;;;-144.57;100.00;62443.72;5012196;28;20050;-63
2023/12/17 05:08:24;;;;;;;10.05;5.60;;;;;;;-144.57;100.00;62443.72;5010753;28;20132;-62
2023/12/17 05:10:50;;;;;;;11.48;5.95;;;;;;;-144.57;100.00;62443.72;5012381;28;20042;-63
2023/12/17 05:13:16;;;;;;;13.63;6.22;;;;;;;-144.57;100.00;62443.72;5010765;28;20057;-62
2023/12/17 05:15:42;;;;;;;9.52;5.57;;;;;;;-144.57;100.00;62443.72;5012012;28;20050;-62
2023/12/17 05:18:08;;;;;;;9.68;5.38;;;;;;;-144.57;100.00;62443.72;5010805;28;20099;-62
2023/12/17 05:20:33;;;;;;;10.68;6.05;;;;;;;-144.57;100.00;62443.72;5010981;28;20046;-62
2023/12/17 05:22:59;;;;;;;12.13;5.80;;;;;;;-144.57;100.00;62443.72;5010780;28;20073;-62
2023/12/17 05:25:25;;;;;;;9.57;5.32;;;;;;;-144.57;100.00;62443.72;5012176;28;20046;-62
2023/12/17 05:27:51;;;;;;;9.50;5.35;;;;;;;-144.57;100.00;62443.72;5011493;28;20133;-62
2023/12/17 05:30:17;;;;;;;10.07;5.45;;;;;;;-144.57;100.00;62443.72;5010814;28;20073;-63
2023/12/17 05:32:43;;;;;;;8.77;5.45;;;;;;;-144.57;100.00;62443.72;5031284;28;20148;-61
2023/12/17 05:35:10;;;;;;;12.10;5.82;;;;;;;-144.57;100.00;62443.72;5031674;28;20041;-62
2023/12/17 05:37:35;;;;;;;9.13;5.65;;;;;;;-144.57;100.00;62443.72;5014091;28;20071;-61
2023/12/17 05:40:02;;;;;;;12.60;5.50;;;;;;;-144.57;100.00;62443.72;5031277;28;20041;-63
2023/12/17 05:42:31;;;;;;;8.23;5.07;;;;;;;-144.57;100.00;62443.72;5031463;28;20049;-62
2023/12/17 05:44:57;;;;;;;11.40;5.55;;;;;;;-144.57;100.00;62443.72;5031278;28;20450;-62
2023/12/17 05:47:22;;;;;;;9.18;5.28;;;;;;;-144.57;100.00;62443.72;5031367;28;20056;-61
2023/12/17 05:49:48;;;;;;;9.70;5.38;;;;;;;-144.57;100.00;62443.72;5013528;28;20411;-61
2023/12/17 05:52:14;;;;;;;11.30;5.30;;;;;;;-144.57;100.00;62443.72;5031475;28;20045;-63
2023/12/17 05:54:39;;;;;;;9.32;5.18;;;;;;;-144.57;100.00;62443.72;5031353;28;20124;-62
2023/12/17 05:57:05;;;;;;;10.60;5.30;;;;;;;-144.57;100.00;62443.72;5013944;28;20467;-62
2023/12/17 05:59:31;;;;;;;8.65;4.97;;;;;;;-144.57;100.00;62443.72;5013780;28;20045;-62
2023/12/17 06:01:57;;;;;;;9.77;5.00;;;;;;;-144.57;100.00;62443.72;5030989;28;20041;-62
2023/12/17 06:04:23;;;;;;;8.70;5.05;;;;;;;-144.57;100.00;62443.72;5031109;28;20458;-62
2023/12/17 06:06:48;;;;;;;11.18;5.70;;;;;;;-144.57;100.00;62443.72;5013780;28;20090;-63
2023/12/17 06:09:14;;;;;;;8.48;4.93;;;;;;;-144.57;100.00;62443.72;5031619;28;20045;-62
2023/12/17 06:11:41;;;;;;;7.63;5.28;;;;;;;-144.57;100.00;62443.72;5013413;28;20065;-64
2023/12/17 06:14:07;;;;;;;6.90;5.05;;;;;;;-144.57;100.00;62443.72;5031547;28;20495;-63
2023/12/17 06:16:33;;;;;;;9.15;5.25;;;;;;;-144.57;100.00;62443.72;5013320;28;20088;-63
2023/12/17 06:18:58;;;;;;;9.10;5.32;;;;;;;-144.57;100.00;62443.72;5030839;28;20065;-63
2023/12/17 06:21:26;;;;;;;10.43;5.25;;;;;;;-144.57;100.00;62443.72;5013374;28;20045;-63
2023/12/17 06:23:57;;;;;;;8.23;5.20;;;;;;;-144.57;100.00;62443.72;5013314;28;20053;-62
2023/12/17 06:26:26;;;;;;;6.43;4.60;;;;;;;-144.57;100.00;62443.72;5031200;28;20128;-62
2023/12/17 06:28:53;;;;;;;9.43;6.00;;;;;;;-144.57;100.00;62443.72;5031213;28;20537;-62
2023/12/17 06:31:19;;;;;;;7.22;4.53;;;;;;;-144.57;100.00;62443.72;5030752;28;20054;-62
2023/12/17 06:33:46;;;;;;;9.13;5.20;;;;;;;-144.57;100.00;62443.72;5031183;28;20049;-62
2023/12/17 06:36:11;;;;;;;10.75;4.65;;;;;;;-144.57;100.00;62443.72;5013394;28;20060;-63
2023/12/17 06:38:40;;;;;;;9.05;5.00;;;;;;;-144.57;100.00;62443.72;5031023;28;20531;-63
2023/12/17 06:41:08;;;;;;;8.57;4.72;;;;;;;-144.57;100.00;62443.72;5030867;28;20068;-63
2023/12/17 06:43:33;;;;;;;7.47;4.22;;;;;;;-144.57;100.00;62443.72;5031358;28;20462;-62
2023/12/17 06:45:59;;;;;;;8.93;5.00;;;;;;;-144.57;100.00;62443.72;5031086;28;20041;-65
2023/12/17 06:48:25;;;;;;;9.52;4.70;;;;;;;-144.57;100.00;62443.72;5030962;28;20049;-61
2023/12/17 06:50:50;;;;;;;7.00;3.92;;;;;;;-144.57;100.00;62443.72;4997136;28;20041;-62
2023/12/17 06:53:17;;;;;;;8.43;4.50;;;;;;;-144.57;100.00;62443.72;5031047;28;20050;-63
2023/12/17 06:55:43;;;;;;;8.20;5.05;;;;;;;-144.57;100.00;62443.72;5030691;28;20068;-61
2023/12/17 06:58:09;;;;;;;8.07;4.13;;;;;;;-144.57;100.00;62443.72;5013385;28;20095;-62
2023/12/17 07:00:35;;;;;;;8.68;4.60;;;;;;;-144.57;100.00;62443.72;5016351;28;20045;-63
2023/12/17 07:03:01;;;;;;;5.35;3.45;;;;;;;-144.57;100.00;62443.72;5034174;28;20049;-63
2023/12/17 07:05:27;;;;;;;7.20;4.43;;;;;;;-144.57;100.00;62443.72;5016556;28;20072;-63
2023/12/17 07:07:53;;;;;;;6.38;4.00;;;;;;;-144.57;100.00;62443.72;5034211;28;20042;-61
2023/12/17 07:10:20;;;;;;;6.72;4.35;;;;;;;-144.57;100.00;62443.72;4983830;28;20033;-63
2023/12/17 07:12:47;;;;;;;6.78;4.10;;;;;;;-144.57;100.00;62443.72;5034233;28;20077;-62
2023/12/17 07:15:12;;;;;;;7.32;4.25;;;;;;;-144.57;100.00;62443.72;5034175;28;20515;-63
2023/12/17 07:17:38;;;;;;;5.82;3.80;;;;;;;-144.57;100.00;62443.72;5016275;28;20041;-64
2023/12/17 07:20:05;;;;;;;8.18;4.70;;;;;;;-144.57;100.00;62443.72;5033699;28;20045;-63
2023/12/17 07:22:31;;;;;;;8.23;4.00;;;;;;;-144.57;100.00;62443.72;5015990;28;20458;-62
2023/12/17 07:24:56;;;;;;;6.93;3.83;;;;;;;-144.57;100.00;62443.72;5016013;28;20034;-64
2023/12/17 07:27:22;;;;;;;7.65;4.07;;;;;;;-144.57;100.00;62443.72;5015943;28;20060;-62
2023/12/17 07:29:48;;;;;;;7.93;4.07;;;;;;;-144.57;100.00;62443.72;5016188;28;20041;-63
2023/12/17 07:32:14;;;;;;;6.55;4.15;;;;;;;-144.57;100.00;62443.72;5033567;28;20128;-62
2023/12/17 07:34:39;;;;;;;6.10;3.55;;;;;;;-144.57;100.00;62443.72;5033593;28;20046;-61
2023/12/17 07:37:05;;;;;;;5.80;3.90;;;;;;;-144.57;100.00;62443.72;5033847;28;20037;-62
2023/12/17 07:39:31;;;;;;;7.20;3.90;;;;;;;-144.57;100.00;62443.72;5015768;28;20533;-62
2023/12/17 07:41:57;;;;;;;8.35;4.30;;;;;;;-144.57;100.00;62443.72;5015632;28;20423;-63
2023/12/17 07:44:24;;;;;;;7.30;4.15;;;;;;;-144.57;100.00;62443.72;5015761;28;20041;-63
2023/12/17 07:46:50;;;;;;;7.10;3.90;;;;;;;-144.57;100.00;62443.72;5015755;28;20045;-62
2023/12/17 07:49:16;;;;;;;5.20;3.53;;;;;;;-144.57;100.00;62443.72;4999284;28;20055;-62
2023/12/17 07:51:43;;;;;;;6.70;3.65;;;;;;;-144.57;100.00;62443.72;5033187;28;20050;-64
2023/12/17 07:54:09;;;;;;;6.28;3.63;;;;;;;-144.57;100.00;62443.72;5033632;28;20057;-62
2023/12/17 07:56:35;;;;;;;13.77;7.00;;;;;;;-144.57;100.00;62443.72;5015797;28;20526;-67
2023/12/17 07:59:01;;;;;;;7.07;3.45;;;;;;;-144.57;100.00;62443.72;5033415;28;20094;-63
2023/12/17 08:01:28;;;;;;;7.93;3.42;;;;;;;-144.57;100.00;62443.72;5033128;28;20087;-63
2023/12/17 08:03:54;;;;;;;7.22;3.55;;;;;;;-144.57;100.00;62443.72;5015367;28;20145;-62
2023/12/17 08:06:19;;;;;;;5.93;3.85;;;;;;;-144.57;100.00;62443.72;5033412;28;20125;-63
2023/12/17 08:08:45;;;;;;;4.88;3.67;;;;;;;-144.57;100.00;62443.72;5033202;28;20506;-61
2023/12/17 08:11:14;;;;;;;7.75;3.97;;;;;;;-144.57;100.00;62443.72;5032919;28;20045;-63
2023/12/17 08:13:40;;;;;;;6.80;3.78;;;;;;;-144.57;100.00;62443.72;5033177;28;20104;-61
2023/12/17 08:16:07;;;;;;;13.30;3.42;;;;;;;-144.57;100.00;62443.72;5015605;28;20331;-66
2023/12/17 08:18:32;;;;;;;6.47;3.63;;;;;;;-144.57;100.00;62443.72;5033037;28;20049;-63
2023/12/17 08:20:58;;;;;;;8.73;4.15;;;;;;;-144.57;100.00;62443.72;5014993;28;20400;-62
2023/12/17 08:23:25;;;;;;;6.53;3.47;;;;;;;-144.57;100.00;62443.72;5033023;28;20052;-62
2023/12/17 08:25:52;;;;;;;10.40;5.07;;;;;;;-144.57;100.00;62443.72;5032670;28;20589;-62
2023/12/17 08:28:20;;;;;;;7.68;4.20;;;;;;;-144.57;100.00;62443.72;5032569;28;20132;-62
2023/12/17 08:30:46;;;;;;;6.40;3.53;;;;;;;-144.57;100.00;62443.72;5032585;28;20057;-63
2023/12/17 08:33:13;;;;;;;6.88;3.70;;;;;;;-144.57;100.00;62443.72;5032686;28;20045;-62
2023/12/17 08:35:38;;;;;;;7.65;4.00;;;;;;;-144.57;100.00;62443.72;5015034;28;20079;-62
2023/12/17 08:38:06;;;;;;;7.78;4.25;;;;;;;-144.57;100.00;62443.72;5032735;28;20049;-62
2023/12/17 08:40:40;;;;;;;7.28;3.95;;;;;;;-144.57;100.00;62443.72;5032628;28;20033;-64
2023/12/17 08:43:09;;;;;;;7.20;3.58;;;;;;;-144.57;100.00;62443.72;5014661;28;20049;-63
2023/12/17 08:45:35;;;;;;;6.90;4.03;;;;;;;-144.57;100.00;62443.72;4998317;28;20047;-62
2023/12/17 08:48:02;;;;;;;5.65;3.70;;;;;;;-144.57;100.00;62443.72;4981749;28;20041;-62
2023/12/17 08:50:28;;;;;;;7.03;4.00;;;;;;;-144.57;100.00;62443.72;5032257;28;20487;-64
2023/12/17 08:52:54;;;;;;;6.45;3.45;;;;;;;-144.57;100.00;62443.72;5014415;28;20128;-63
2023/12/17 08:55:20;;;;;;;6.43;3.45;;;;;;;-144.57;100.00;62443.72;5014498;28;20529;-64
2023/12/17 08:57:49;;;;;;;6.57;3.35;;;;;;;-144.57;100.00;62443.72;5014394;28;20115;-62
2023/12/17 09:00:18;;;;;;;5.93;3.42;;;;;;;-144.57;100.00;62443.72;5032240;28;20095;-64
2023/12/17 09:02:44;;;;;;;5.00;3.35;;;;;;;-144.57;100.00;62443.72;5014320;28;20549;-63
2023/12/17 09:05:09;;;;;;;5.40;3.63;;;;;;;-144.57;100.00;62443.72;5031941;28;20037;-64
2023/12/17 09:07:36;;;;;;;5.63;3.15;;;;;;;-144.57;100.00;62443.72;4997756;28;20045;-63
2023/12/17 09:10:02;;;;;;;7.07;3.20;;;;;;;-144.57;100.00;62443.72;5014212;28;20048;-64
2023/12/17 09:12:29;;;;;;;6.53;3.40;;;;;;;-144.57;100.00;62443.72;5014315;28;20058;-63
2023/12/17 09:14:54;;;;;;;4.82;3.22;;;;;;;-144.57;100.00;62443.72;5014119;28;20045;-64
2023/12/17 09:17:20;;;;;;;6.85;2.80;;;;;;;-144.57;100.00;62443.72;5013345;28;20045;-63
2023/12/17 09:19:47;;;;;;;5.05;3.30;;;;;;;-144.57;100.00;62443.72;5013804;28;20422;-62
2023/12/17 09:22:13;;;;;;;5.47;3.15;;;;;;;-144.57;100.00;62443.72;5030663;28;20517;-62
2023/12/17 09:24:39;;;;;;;5.97;3.45;;;;;;;-144.57;100.00;62443.72;5031508;28;20044;-64
2023/12/17 09:27:05;;;;;;;5.50;3.58;;;;;;;-144.57;100.00;62443.72;5031514;28;20037;-64
2023/12/17 09:29:32;;;;;;;4.05;2.72;;;;;;;-144.57;100.00;62443.72;5023258;28;20088;-61
2023/12/17 09:31:58;;;;;;;3.72;2.50;;;;;;;-144.57;100.00;62443.72;5027230;28;20045;-61
2023/12/17 09:34:24;;;;;;;5.15;2.65;;;;;;;-144.57;100.00;62443.72;5009736;28;20044;-62
2023/12/17 09:36:50;;;;;;;4.10;2.53;;;;;;;-144.57;100.00;62443.72;5011614;28;20041;-63
2023/12/17 09:39:15;;;;;;;5.88;2.90;;;;;;;-144.57;100.00;62443.72;5001591;28;20045;-63
2023/12/17 09:41:41;;;;;;;4.55;2.33;;;;;;;-144.57;100.00;62443.72;5031264;28;20064;-64
2023/12/17 09:44:08;;;;;;;4.05;2.40;;;;;;;-144.57;100.00;62443.72;5029965;28;20045;-63
2023/12/17 09:46:35;;;;;;;3.25;2.40;;;;;;;-144.57;100.00;62443.72;4996679;28;20038;-64
2023/12/17 09:49:01;;;;;;;3.42;2.08;;;;;;;-144.57;100.00;62443.72;5030941;28;20046;-63
2023/12/17 09:51:28;;;;;;;4.43;2.33;;;;;;;-144.57;100.00;62443.72;5031376;28;20454;-63
2023/12/17 09:53:57;;;;;;;5.60;2.53;;;;;;;-144.57;100.00;62443.72;5013705;28;20041;-62
2023/12/17 09:56:24;;;;;;;2.35;2.00;;;;;;;-144.57;100.00;62443.72;5031449;28;20076;-61
2023/12/17 09:58:50;;;;;;;2.60;1.83;;;;;;;-144.57;100.00;62443.72;4997125;28;20053;-66
2023/12/17 10:01:15;;;;;;;2.85;1.98;;;;;;;-144.57;100.00;62443.72;5013565;28;20540;-62
2023/12/17 10:03:42;;;;;;;2.55;2.00;;;;;;;-144.57;100.00;62443.72;5030664;28;20049;-62
2023/12/17 10:06:09;;;;;;;2.63;2.05;;;;;;;-144.57;100.00;62443.72;4996694;28;20041;-62
2023/12/17 10:08:36;;;;;;;3.83;2.25;;;;;;;-144.57;100.00;62443.72;5013449;28;20128;-63
2023/12/17 10:11:02;;;;;;;3.10;2.08;;;;;;;-144.57;100.00;62443.72;5013985;28;20064;-61
2023/12/17 10:13:28;;;;;;;2.58;1.92;;;;;;;-144.57;100.00;62443.72;5031265;28;20037;-61
2023/12/17 10:15:55;;;;;;;2.40;2.03;;;;;;;-144.57;100.00;62443.72;5031085;28;20045;-63
2023/12/17 10:18:22;;;;;;;2.70;2.10;;;;;;;-144.57;100.00;62443.72;5013441;28;20068;-62
2023/12/17 10:20:49;;;;;;;2.60;1.90;;;;;;;-144.57;100.00;62443.72;5013566;28;20033;-62
2023/12/17 10:23:15;;;;;;;3.65;2.22;;;;;;;-144.57;100.00;62443.72;5030471;28;20407;-59
2023/12/17 10:25:42;;;;;;;3.80;2.45;;;;;;;-144.57;100.00;62443.72;5013409;28;20057;-61
2023/12/17 10:28:12;;;;;;;2.72;2.10;;;;;;;-144.57;100.00;62443.72;5013263;28;20041;-61
2023/12/17 10:30:39;;;;;;;4.47;2.22;;;;;;;-144.57;100.00;62443.72;5030802;28;20041;-60
2023/12/17 10:33:09;;;;;;;2.92;2.10;;;;;;;-144.57;100.00;62443.72;5031058;28;20046;-60
2023/12/17 10:35:36;;;;;;;2.28;1.98;;;;;;;-144.57;100.00;62443.72;5000630;28;20507;-58
2023/12/17 10:38:05;;;;;;;3.70;2.20;;;;;;;-144.57;100.00;62443.72;5016908;28;20052;-59
2023/12/17 10:40:32;;;;;;;2.35;1.90;;;;;;;-144.57;100.00;62443.72;5016367;28;20037;-61
2023/12/17 10:42:59;;;;;;;2.42;2.00;;;;;;;-144.57;100.00;62443.72;5034563;28;20077;-61
2023/12/17 10:45:25;;;;;;;3.40;2.08;;;;;;;-144.57;100.00;62443.72;5027300;28;20049;-64
2023/12/17 10:47:58;;;;;;;4.25;2.10;;;;;;;-144.57;100.00;62443.72;5012158;28;20048;-62
2023/12/17 10:50:25;;;;;;;3.35;2.33;;;;;;;-144.57;100.00;62443.72;5016500;28;20041;-62
2023/12/17 10:52:51;;;;;;;3.08;2.10;;;;;;;-144.57;100.00;62443.72;5034453;28;20061;-62
2023/12/17 10:55:18;;;;;;;5.38;2.20;;;;;;;-144.57;100.00;62443.72;5016986;28;20423;-61
2023/12/17 10:57:54;;;;;;;3.08;2.33;;;;;;;-144.57;100.00;62443.72;5016573;28;20536;-63
2023/12/17 11:00:21;;;;;;;4.15;2.35;;;;;;;-144.57;100.00;62443.72;5016582;28;20087;-61
2023/12/17 11:02:50;;;;;;;4.15;2.28;;;;;;;-144.57;100.00;62443.72;5016448;28;20140;-63